createdAt,value
2019-05-17T00:04:56.244Z,13.99
2019-05-17T00:10:02.635Z,13.81
2019-05-17T00:15:08.710Z,14.15
2019-05-17T00:20:17.059Z,13.93
2019-05-17T00:25:22.152Z,13.85
2019-05-17T00:30:28.957Z,13.78
2019-05-17T00:35:34.661Z,13.77
2019-05-17T00:40:40.337Z,13.33
2019-05-17T00:45:46.801Z,13.35
2019-05-17T00:50:54.380Z,13.79
2019-05-17T00:56:02.956Z,13.66
2019-05-17T01:01:08.722Z,13.56
2019-05-17T01:06:16.775Z,13.58
2019-05-17T01:11:21.778Z,13.42
2019-05-17T01:16:27.654Z,12.95
2019-05-17T01:21:33.356Z,12.72
2019-05-17T01:26:39.029Z,12.71
2019-05-17T01:31:46.527Z,12.96
2019-05-17T01:36:52.411Z,12.92
2019-05-17T01:41:58.134Z,12.71
2019-05-17T01:47:04.418Z,12.86
2019-05-17T01:52:10.106Z,12.89
2019-05-17T01:57:16.843Z,12.90
2019-05-17T02:02:27.155Z,12.44
2019-05-17T02:07:32.966Z,12.47
2019-05-17T02:12:38.664Z,12.64
2019-05-17T02:17:46.622Z,12.68
2019-05-17T02:22:51.896Z,12.97
2019-05-17T02:27:57.684Z,12.95
2019-05-17T02:33:04.171Z,12.93
2019-05-17T02:38:13.037Z,12.95
2019-05-17T02:43:17.550Z,12.83
2019-05-17T02:48:23.772Z,12.74
2019-05-17T02:53:29.477Z,12.73
2019-05-17T02:58:35.218Z,12.75
2019-05-17T03:03:43.667Z,12.57
2019-05-17T03:08:48.395Z,12.55
2019-05-17T03:13:54.107Z,12.63
2019-05-17T03:18:59.803Z,13.00
2019-05-17T03:24:06.521Z,12.94
2019-05-17T03:29:13.608Z,12.87
2019-05-17T03:34:26.101Z,12.91
2019-05-17T03:39:28.751Z,12.82
2019-05-17T03:44:34.439Z,12.85
2019-05-17T03:49:43.385Z,12.85
2019-05-17T03:54:47.578Z,12.91
2019-05-17T03:59:53.288Z,12.95
2019-05-17T04:04:59.017Z,13.07
2019-05-17T04:10:08.033Z,13.02
2019-05-17T04:15:14.432Z,12.93
2019-05-17T04:20:22.364Z,12.97
2019-05-17T04:25:27.844Z,12.82
2019-05-17T04:30:33.527Z,12.74
2019-05-17T04:35:39.322Z,12.64
2019-05-17T04:40:45.222Z,12.79
2019-05-17T04:45:53.545Z,12.73
2019-05-17T04:50:58.320Z,12.96
2019-05-17T04:56:04.493Z,12.75
2019-05-17T05:01:12.899Z,12.64
2019-05-17T05:06:17.670Z,12.96
2019-05-17T05:11:23.547Z,12.81
2019-05-17T05:16:31.845Z,12.65
2019-05-17T05:21:36.666Z,12.66
2019-05-17T05:26:42.769Z,12.85
2019-05-17T05:31:48.551Z,12.76
2019-05-17T05:36:54.323Z,12.87
2019-05-17T05:42:08.054Z,12.78
2019-05-17T05:47:07.362Z,12.98
2019-05-17T05:52:13.045Z,13.07
2019-05-17T05:57:18.674Z,13.29
2019-05-17T06:02:24.364Z,13.30
2019-05-17T06:07:32.123Z,13.40
2019-05-17T06:12:37.519Z,13.24
2019-05-17T06:17:43.284Z,13.35
2019-05-17T06:22:48.980Z,13.40
2019-05-17T06:27:54.679Z,13.09
2019-05-17T06:33:02.470Z,13.25
2019-05-17T06:38:07.750Z,13.48
2019-05-17T06:43:13.478Z,13.45
2019-05-17T06:48:19.270Z,13.38
2019-05-17T06:53:24.985Z,13.42
2019-05-17T06:58:31.736Z,13.62
2019-05-17T07:03:37.422Z,13.95
2019-05-17T07:08:43.244Z,14.11
2019-05-17T07:13:49.596Z,14.32
2019-05-17T07:18:55.437Z,14.51
2019-05-17T07:24:01.122Z,14.66
2019-05-17T07:29:06.785Z,14.89
2019-05-17T07:34:13.575Z,15.14
2019-05-17T07:39:20.468Z,14.61
2019-05-17T07:44:26.267Z,14.06
2019-05-17T07:49:31.987Z,14.91
2019-05-17T07:54:39.774Z,14.82
2019-05-17T07:59:45.012Z,14.39
2019-05-17T08:04:50.694Z,15.16
2019-05-17T08:09:56.398Z,15.23
2019-05-17T08:15:02.165Z,15.37
2019-05-17T08:20:10.146Z,15.73
2019-05-17T08:25:17.131Z,15.97
2019-05-17T08:30:23.297Z,16.35
2019-05-17T08:35:30.407Z,16.81
2019-05-17T08:40:36.342Z,17.01
2019-05-17T08:45:42.232Z,16.71
2019-05-17T08:50:49.467Z,16.73
2019-05-17T08:55:55.378Z,15.95
2019-05-17T09:01:01.148Z,16.10
2019-05-17T09:06:06.834Z,16.04
2019-05-17T09:11:12.489Z,16.27
2019-05-17T09:16:19.565Z,16.52
2019-05-17T09:21:25.521Z,16.94
2019-05-17T09:26:31.326Z,16.84
2019-05-17T09:31:40.266Z,17.27
2019-05-17T09:36:46.213Z,16.85
2019-05-17T09:41:51.913Z,16.88
2019-05-17T09:46:59.516Z,16.67
2019-05-17T09:52:05.494Z,16.77
2019-05-17T09:57:11.507Z,17.10
2019-05-17T10:02:17.500Z,17.38
2019-05-17T10:07:23.311Z,17.14
2019-05-17T10:12:29.392Z,17.65
2019-05-17T10:17:35.173Z,17.42
2019-05-17T10:22:42.239Z,17.10
2019-05-17T10:27:49.809Z,16.75
2019-05-17T10:32:55.846Z,17.11
2019-05-17T10:38:01.540Z,16.83
2019-05-17T10:43:09.845Z,16.40
2019-05-17T10:48:15.039Z,16.40
2019-05-17T10:53:20.920Z,16.63
2019-05-17T10:58:26.872Z,16.85
2019-05-17T11:03:32.697Z,16.83
2019-05-17T11:08:38.390Z,16.39
2019-05-17T11:13:44.062Z,16.58
2019-05-17T11:18:49.807Z,16.79
2019-05-17T11:23:55.486Z,17.05
2019-05-17T11:29:01.211Z,16.80
2019-05-17T11:34:07.143Z,17.34
2019-05-17T11:39:13.026Z,17.72
2019-05-17T11:44:18.730Z,17.68
2019-05-17T11:49:24.536Z,17.80
2019-05-17T11:54:30.266Z,18.17
2019-05-17T11:59:36.183Z,17.94
2019-05-17T12:04:41.935Z,17.70
2019-05-17T12:09:47.633Z,17.21
2019-05-17T12:14:53.337Z,17.03
2019-05-17T12:19:59.081Z,17.30
2019-05-17T12:25:06.756Z,17.42
2019-05-17T12:30:12.994Z,16.94
2019-05-17T12:35:18.693Z,17.62
2019-05-17T12:40:25.922Z,17.55
2019-05-17T12:45:31.644Z,17.44
2019-05-17T12:50:37.476Z,17.47
2019-05-17T12:55:43.239Z,17.04
2019-05-17T13:00:49.189Z,16.97
2019-05-17T13:05:55.109Z,17.37
2019-05-17T13:11:01.033Z,17.36
2019-05-17T13:16:17.595Z,17.10
2019-05-17T13:21:14.449Z,16.85
2019-05-17T13:26:20.214Z,16.75
2019-05-17T13:31:25.992Z,17.09
2019-05-17T13:36:32.727Z,17.89
2019-05-17T13:41:38.633Z,18.14
2019-05-17T13:46:44.398Z,18.41
2019-05-17T13:51:50.084Z,19.09
2019-05-17T13:56:55.820Z,19.17
2019-05-17T14:02:01.510Z,19.47
2019-05-17T14:07:07.324Z,19.21
2019-05-17T14:12:13.039Z,18.90
2019-05-17T14:17:18.863Z,19.74
2019-05-17T14:22:24.674Z,20.52
2019-05-17T14:27:30.452Z,19.55
2019-05-17T14:32:36.249Z,19.09
2019-05-17T14:37:42.053Z,20.08
2019-05-17T14:42:47.818Z,20.62
2019-05-17T14:47:53.422Z,20.21
2019-05-17T14:52:59.198Z,20.07
2019-05-17T14:58:04.898Z,20.15
2019-05-17T15:03:10.498Z,21.15
2019-05-17T15:08:16.210Z,22.12
2019-05-17T15:13:21.900Z,22.67
2019-05-17T15:18:27.571Z,22.64
2019-05-17T15:23:33.691Z,22.15
2019-05-17T15:28:39.552Z,22.09
2019-05-17T15:33:45.623Z,22.04
2019-05-17T15:38:51.515Z,22.27
2019-05-17T15:43:57.180Z,21.99
2019-05-17T15:49:03.925Z,22.56
2019-05-17T15:54:09.964Z,24.22
2019-05-17T15:59:15.643Z,25.91
2019-05-17T16:04:21.396Z,25.30
2019-05-17T16:09:27.289Z,26.33
2019-05-17T16:14:33.111Z,23.37
2019-05-17T16:19:38.998Z,23.09
2019-05-17T16:24:45.880Z,21.92
2019-05-17T16:29:52.055Z,21.26
2019-05-17T16:34:57.806Z,21.96
2019-05-17T16:40:07.114Z,22.38
2019-05-17T16:45:14.864Z,22.83
2019-05-17T16:50:20.802Z,26.66
2019-05-17T16:55:26.591Z,25.87
2019-05-17T17:00:38.438Z,24.09
2019-05-17T17:05:44.131Z,24.21
2019-05-17T17:10:49.961Z,23.05
2019-05-17T17:15:55.756Z,22.28
2019-05-17T17:21:01.539Z,21.81
2019-05-17T17:26:07.406Z,21.58
2019-05-17T17:31:15.985Z,21.22
2019-05-17T17:36:21.829Z,21.17
2019-05-17T17:41:27.794Z,20.60
2019-05-17T17:46:33.522Z,20.37
2019-05-17T17:51:39.353Z,20.26
2019-05-17T17:56:45.102Z,20.19
2019-05-17T18:01:50.956Z,19.96
2019-05-17T18:06:56.848Z,19.82
2019-05-17T18:12:02.585Z,19.54
2019-05-17T18:17:08.794Z,19.34
2019-05-17T18:22:14.644Z,19.24
2019-05-17T18:27:20.301Z,18.88
2019-05-17T18:32:26.009Z,18.75
2019-05-17T18:37:31.861Z,18.42
2019-05-17T18:42:37.716Z,18.36
2019-05-17T18:47:43.790Z,18.15
2019-05-17T18:52:49.660Z,17.84
2019-05-17T18:57:55.539Z,17.88
2019-05-17T19:03:01.411Z,17.78
2019-05-17T19:08:07.119Z,17.54
2019-05-17T19:13:14.224Z,17.47
2019-05-17T19:18:19.934Z,17.27
2019-05-17T19:23:26.115Z,17.05
2019-05-17T19:28:31.882Z,16.74
2019-05-17T19:33:37.651Z,16.76
2019-05-17T19:38:43.468Z,16.61
2019-05-17T19:43:50.879Z,16.47
2019-05-17T19:48:56.587Z,16.09
2019-05-17T19:54:02.299Z,15.90
2019-05-17T19:59:07.970Z,15.79
2019-05-17T20:04:13.655Z,15.86
2019-05-17T20:09:19.333Z,15.73
2019-05-17T20:14:25.025Z,15.65
2019-05-17T20:19:30.838Z,15.42
2019-05-17T20:24:36.516Z,15.45
2019-05-17T20:29:42.362Z,15.32
2019-05-17T20:34:48.620Z,15.35
2019-05-17T20:39:54.232Z,15.24
2019-05-17T20:45:00.356Z,15.10
2019-05-17T20:50:09.852Z,14.90
2019-05-17T20:55:16.741Z,15.06
2019-05-17T21:00:22.509Z,14.94
2019-05-17T21:05:28.307Z,14.89
2019-05-17T21:10:34.330Z,14.88
2019-05-17T21:15:47.394Z,14.77
2019-05-17T21:20:47.814Z,14.55
2019-05-17T21:25:53.891Z,14.44
2019-05-17T21:30:59.693Z,14.21
2019-05-17T21:36:06.135Z,14.09
2019-05-17T21:41:11.914Z,14.24
2019-05-17T21:46:17.782Z,14.25
2019-05-17T21:51:23.698Z,14.12
2019-05-17T21:56:30.492Z,14.07
2019-05-17T22:01:36.419Z,14.22
2019-05-17T22:06:42.179Z,14.05
2019-05-17T22:11:49.604Z,13.93
2019-05-17T22:16:55.478Z,14.09
2019-05-17T22:22:01.583Z,13.94
2019-05-17T22:27:07.579Z,13.94
2019-05-17T22:32:13.257Z,13.98
2019-05-17T22:37:18.966Z,13.71
2019-05-17T22:42:24.676Z,13.60
2019-05-17T22:47:31.921Z,13.35
2019-05-17T22:52:37.574Z,13.41
2019-05-17T22:57:43.298Z,13.54
2019-05-17T23:02:48.977Z,13.41
2019-05-17T23:07:54.728Z,13.54
2019-05-17T23:13:00.406Z,13.34
2019-05-17T23:18:06.134Z,13.35
2019-05-17T23:23:15.242Z,13.25
2019-05-17T23:28:19.233Z,13.45
2019-05-17T23:33:24.827Z,13.27
2019-05-17T23:38:30.586Z,13.15
2019-05-17T23:43:36.297Z,13.29
2019-05-17T23:48:41.954Z,13.02
2019-05-17T23:53:47.602Z,13.08
2019-05-17T23:58:53.269Z,13.04
